Time;durP1;ratioP1;P1;durP2;ratioP2;P2;SDS_P1;SDS_P2;PMS_P1;PMS_P2;Temp;Humidity;BMP_temperature;BMP_pressure;BME280_temperature;BME280_humidity;BME280_pressure;Samples;Min_cycle;Max_cycle;Signal;HPM_P1;HPM_P2
2023/01/29 00:10:18;;;;;;;32.10;14.60;;;;;;;1.13;77.91;101109.54;682150;1260;139013;-83
2023/01/29 00:25:21;;;;;;;30.80;12.90;;;;;;;1.18;78.51;101093.36;682059;1263;139998;-82
2023/01/29 00:40:25;;;;;;;24.90;12.30;;;;;;;1.26;78.96;101080.51;682367;1259;139411;-82
2023/01/29 00:55:29;;;;;;;28.60;12.20;;;;;;;1.35;79.11;101074.30;682093;1261;139911;-82
2023/01/29 01:10:32;;;;;;;31.80;15.00;;;;;;;1.40;79.75;101083.60;682297;1263;139229;-81
2023/01/29 01:25:35;;;;;;;26.40;12.10;;;;;;;1.45;79.94;101088.08;682216;1263;139580;-82
2023/01/29 01:40:44;;;;;;;32.80;13.50;;;;;;;1.47;80.25;101071.80;682451;1264;138947;-82
2023/01/29 01:55:56;;;;;;;23.20;11.00;;;;;;;1.49;79.86;101067.23;682059;1262;139130;-81
2023/01/29 02:11:00;;;;;;;19.80;10.60;;;;;;;1.52;80.20;101066.61;682198;1264;139040;-83
2023/01/29 02:26:19;;;;;;;28.30;13.80;;;;;;;1.61;79.35;101049.00;682323;1264;139442;-82
2023/01/29 02:41:27;;;;;;;181.30;64.70;;;;;;;1.59;79.50;101026.85;682468;1263;139551;-82
2023/01/29 02:56:44;;;;;;;64.60;26.30;;;;;;;1.61;79.72;101002.45;682193;1264;139643;-82
2023/01/29 03:11:53;;;;;;;41.20;19.50;;;;;;;1.52;81.44;100994.36;682552;1263;139273;-82
2023/01/29 03:42:33;;;;;;;22.60;9.70;;;;;;;1.18;90.85;100949.16;682472;1259;139005;-82
2023/01/29 03:57:52;;;;;;;28.50;13.20;;;;;;;1.16;91.58;100927.14;682315;1259;139106;-82
2023/01/29 04:13:03;;;;;;;21.60;9.30;;;;;;;1.29;91.29;100950.06;682349;1260;139353;-82
2023/01/29 04:28:35;;;;;;;16.80;8.60;;;;;;;1.30;91.24;100945.06;682288;1261;139390;-81
2023/01/29 04:44:04;;;;;;;25.10;11.90;;;;;;;1.21;92.44;100918.66;682265;1263;139294;-81
2023/01/29 04:59:13;;;;;;;14.40;8.70;;;;;;;1.17;93.49;100895.91;682222;1260;139511;-80
2023/01/29 05:14:18;;;;;;;16.20;9.30;;;;;;;1.16;94.31;100884.91;682320;1262;138976;-80
2023/01/29 05:29:21;;;;;;;18.30;10.20;;;;;;;1.12;97.27;100885.75;682152;1263;139124;-81
2023/01/29 05:44:25;;;;;;;18.50;10.00;;;;;;;1.28;96.93;100869.65;682088;1263;139315;-81
2023/01/29 05:59:30;;;;;;;15.30;8.70;;;;;;;1.20;98.31;100878.93;682165;1264;139116;-81
2023/01/29 06:14:33;;;;;;;16.80;9.60;;;;;;;1.20;99.37;100873.39;682253;1262;139291;-81
2023/01/29 06:29:37;;;;;;;27.30;13.50;;;;;;;1.20;99.41;100886.67;682132;1262;139184;-82
2023/01/29 06:44:41;;;;;;;53.20;19.50;;;;;;;1.24;99.44;100875.99;682085;1262;139190;-82
2023/01/29 06:59:44;;;;;;;26.70;13.00;;;;;;;1.15;99.74;100869.29;682194;1262;139139;-81
2023/01/29 07:14:48;;;;;;;23.00;11.80;;;;;;;1.26;99.72;100845.09;682052;1264;139390;-81
2023/01/29 07:29:51;;;;;;;27.70;14.60;;;;;;;1.29;99.93;100843.21;682255;1261;139152;-82
2023/01/29 07:44:55;;;;;;;24.90;13.70;;;;;;;1.40;99.72;100843.48;681892;1260;139492;-80
2023/01/29 07:59:58;;;;;;;29.10;15.80;;;;;;;1.47;99.35;100815.26;682070;1262;139099;-80
2023/01/29 08:15:02;;;;;;;28.40;14.20;;;;;;;1.60;99.42;100807.48;682061;1265;139227;-79
2023/01/29 08:30:09;;;;;;;26.20;14.90;;;;;;;1.78;99.05;100805.86;682212;1261;139127;-80
2023/01/29 08:45:12;;;;;;;;;;;;;;;2.01;98.49;100791.90;682242;1260;139677;-81
2023/01/29 09:00:16;;;;;;;45.00;23.20;;;;;;;2.12;98.01;100778.83;682210;1265;125555;-80
2023/01/29 09:15:20;;;;;;;24.60;13.50;;;;;;;2.18;98.35;100775.84;682242;1265;138975;-80
2023/01/29 09:30:25;;;;;;;64.40;28.40;;;;;;;2.31;97.92;100791.09;682039;1264;139073;-79
2023/01/29 09:45:29;;;;;;;27.10;15.40;;;;;;;2.59;99.68;100798.27;682491;1264;139129;-80
2023/01/29 10:00:39;;;;;;;38.80;19.60;;;;;;;2.83;98.96;100775.75;682068;1265;139039;-80
2023/01/29 10:15:55;;;;;;;44.10;21.60;;;;;;;2.55;97.69;100774.30;682267;1265;138971;-80
2023/01/29 10:31:06;;;;;;;24.00;12.90;;;;;;;2.60;98.53;100743.84;682100;1266;139287;-80
2023/01/29 10:46:16;;;;;;;38.90;21.90;;;;;;;2.74;98.94;100719.16;682053;1264;139102;-80
2023/01/29 11:01:20;;;;;;;32.80;16.10;;;;;;;2.78;99.26;100690.15;682062;1265;139405;-80
2023/01/29 11:16:29;;;;;;;32.10;15.20;;;;;;;2.77;99.26;100667.72;682271;1263;139018;-80
2023/01/29 11:31:37;;;;;;;32.80;17.30;;;;;;;2.68;99.73;100645.86;681863;1264;139350;-80
2023/01/29 11:46:41;;;;;;;28.60;14.60;;;;;;;2.72;99.58;100621.48;682044;1264;139581;-80
2023/01/29 12:01:45;;;;;;;31.40;16.20;;;;;;;2.69;99.41;100621.63;682094;1265;139182;-79
2023/01/29 12:16:58;;;;;;;31.10;14.00;;;;;;;2.77;99.48;100614.88;682159;1265;140193;-79
2023/01/29 12:32:21;;;;;;;51.30;22.10;;;;;;;2.90;99.67;100576.04;682231;1266;139843;-79
2023/01/29 12:47:42;;;;;;;102.10;43.40;;;;;;;2.80;100.00;100567.74;682222;1266;139276;-79
2023/01/29 13:02:54;;;;;;;61.00;26.70;;;;;;;2.77;100.00;100577.38;682199;1265;139552;-79
2023/01/29 13:18:14;;;;;;;39.60;18.30;;;;;;;2.85;100.00;100593.07;682300;1265;139713;-78
2023/01/29 13:33:22;;;;;;;39.10;17.20;;;;;;;2.83;100.00;100558.59;682240;1266;139890;-78
2023/01/29 13:48:35;;;;;;;53.00;31.30;;;;;;;2.86;100.00;100542.70;682154;1264;140735;-78
2023/01/29 14:03:44;;;;;;;54.10;24.30;;;;;;;2.93;100.00;100526.82;682261;1264;140099;-79
2023/01/29 14:19:18;;;;;;;42.30;17.70;;;;;;;2.87;100.00;100515.05;682058;1263;140480;-77
2023/01/29 14:34:43;;;;;;;64.20;35.10;;;;;;;2.84;100.00;100519.14;682162;1264;140142;-79
2023/01/29 14:49:48;;;;;;;46.30;20.10;;;;;;;2.86;100.00;100504.91;682092;1264;139289;-80
2023/01/29 15:04:59;;;;;;;64.20;29.40;;;;;;;2.92;100.00;100503.23;682332;1261;140023;-78
2023/01/29 15:20:39;;;;;;;79.60;31.60;;;;;;;2.89;100.00;100520.11;682178;1263;139484;-79
2023/01/29 15:35:44;;;;;;;58.50;24.20;;;;;;;2.85;100.00;100517.75;682380;1263;139132;-79
2023/01/29 15:50:53;;;;;;;84.20;31.90;;;;;;;2.88;100.00;100493.20;682254;1263;140353;-79
2023/01/29 16:05:58;;;;;;;49.00;22.10;;;;;;;2.90;100.00;100479.83;682312;1264;140419;-79
2023/01/29 16:21:33;;;;;;;46.10;19.70;;;;;;;2.93;100.00;100458.23;682022;1262;140818;-78
2023/01/29 16:36:44;;;;;;;49.40;20.50;;;;;;;2.89;100.00;100430.77;681950;1266;139447;-79
2023/01/29 16:51:48;;;;;;;54.30;21.80;;;;;;;2.85;100.00;100424.43;681894;1262;140958;-78
2023/01/29 17:06:59;;;;;;;97.20;40.10;;;;;;;2.80;100.00;100400.16;682029;1264;139384;-78
2023/01/29 17:22:06;;;;;;;124.60;38.50;;;;;;;2.84;100.00;100398.25;682169;1262;139726;-79
2023/01/29 17:37:14;;;;;;;;;;;;;;;2.81;100.00;100397.55;682159;1264;140290;-80
2023/01/29 17:52:17;;;;;;;;;;;;;;;2.84;100.00;100387.19;682323;1260;125416;-80
2023/01/29 18:07:21;;;;;;;137.30;48.70;;;;;;;2.85;100.00;100371.59;682270;1263;126224;-78
2023/01/29 18:22:28;;;;;;;45.40;18.50;;;;;;;2.88;100.00;100352.77;682193;1266;139590;-78
2023/01/29 18:37:32;;;;;;;51.90;22.30;;;;;;;2.87;100.00;100331.90;682007;1266;140289;-80
2023/01/29 18:52:36;;;;;;;58.30;23.30;;;;;;;2.77;100.00;100305.35;682160;1275;139237;-79
2023/01/29 19:07:40;;;;;;;65.20;22.60;;;;;;;2.72;100.00;100272.60;682097;1262;139924;-80
2023/01/29 19:22:44;;;;;;;52.10;21.50;;;;;;;2.80;100.00;100241.08;682287;1259;140719;-79
2023/01/29 19:37:48;;;;;;;70.30;26.40;;;;;;;2.78;100.00;100223.02;682240;1262;139445;-79
2023/01/29 19:52:54;;;;;;;49.80;20.70;;;;;;;2.78;100.00;100207.85;682418;1263;139258;-82
2023/01/29 20:07:57;;;;;;;43.70;18.80;;;;;;;2.86;100.00;100197.95;682383;1260;140078;-80
2023/01/29 20:23:01;;;;;;;40.80;18.40;;;;;;;2.88;100.00;100171.36;682719;1260;142390;-79
2023/01/29 20:38:06;;;;;;;40.10;18.90;;;;;;;2.89;100.00;100143.33;682229;1260;141022;-79
2023/01/29 20:53:10;;;;;;;38.90;17.10;;;;;;;2.91;100.00;100120.20;682322;1260;139295;-79
2023/01/29 21:08:14;;;;;;;41.90;17.50;;;;;;;2.95;100.00;100090.95;682162;1262;142982;-79
2023/01/29 21:23:23;;;;;;;46.60;19.40;;;;;;;3.06;100.00;100046.97;682284;1263;214697;-80
2023/01/29 21:38:29;;;;;;;45.90;19.50;;;;;;;3.03;100.00;100030.69;682248;1262;139344;-79
2023/01/29 21:53:35;;;;;;;48.20;19.60;;;;;;;2.95;100.00;100002.20;682708;1263;140122;-79
2023/01/29 22:08:40;;;;;;;39.30;18.20;;;;;;;2.99;100.00;99988.80;682603;1260;139378;-79
2023/01/29 22:23:48;;;;;;;46.30;18.50;;;;;;;2.98;100.00;99961.88;682377;1260;139273;-79
2023/01/29 22:38:51;;;;;;;34.00;15.70;;;;;;;3.03;100.00;99939.15;682118;1263;141752;-79
2023/01/29 22:53:56;;;;;;;34.20;16.10;;;;;;;3.06;100.00;99907.69;682495;1263;139421;-79
2023/01/29 23:09:00;;;;;;;35.70;16.20;;;;;;;3.03;100.00;99874.67;682192;1262;139202;-79
2023/01/29 23:24:04;;;;;;;33.30;16.60;;;;;;;3.04;100.00;99844.91;682269;1263;139602;-79
2023/01/29 23:39:08;;;;;;;79.30;38.00;;;;;;;2.99;100.00;99799.61;682286;1263;139383;-79
2023/01/29 23:54:12;;;;;;;97.50;39.30;;;;;;;2.97;100.00;99764.46;682263;1263;139105;-79
